Carson Sink, Nevada Weather observations

Data are for observation ending at time listed.
 Day   Time    Ave.   Ave.  Ave.  Vector   Max.   Stn.    Total    Solar   Ave.  
  of    of     Air    Rel.  Wind   Wind    Wind   Baro.  Precip.   Rad.    Soil  
Year   Day     Temp.  Hum.  Speed  Dir.    Gust   Pres.                    Temp. 
2016   (PST)    F      %     mph   deg.    mph     mb.     in.     W/m2     F   
------------------------------------------------------------------------------
 273   12:30   82.2    17    9.6   223     16.3   884.6    0.00     695     76.4
 273   12:40   82.3    16    8.9   220     16.1   884.4    0.00     693     76.7
 273   12:50   82.5    16    9.5   226     17.7   884.3    0.00     687     77.0
 273   13:00   82.8    16   10.1   236     19.0   884.1    0.00     675     77.3
 273   13:10   82.8    15    9.3   225     17.5   884.0    0.00     660     77.6
 273   13:20   82.9    15   12.8   219     21.1   883.9    0.00     645     78.0
 273   13:30   82.9    15    9.8   212     18.3   883.8    0.00     632     78.3
 273   13:40   83.4    14   11.6   227     17.4   883.7    0.00     614     78.5
 273   13:50   83.2    14    9.1   237     14.4   883.6    0.00     597     78.8
 273   14:00   83.7    14    9.3   236     20.0   883.5    0.00     572     79.1
 273   14:10   84.4    14   11.2   212     19.2   883.4    0.00     556     79.4
 273   14:20   83.9    14    8.9   216     17.2   883.4    0.00     534     79.6
 273   14:30   84.4    14    9.7   223     15.7   883.2    0.00     386     79.8
 273   14:40   84.7    14    9.9   220     16.5   883.1    0.00     493     80.1
 273   14:50   85.0    14    9.7   194     15.3   883.1    0.00     456     80.3
 273   15:00   84.8    14    6.1   196     11.0   883.0    0.00     430     80.5
 273   15:10   84.7    14    7.4   228     12.4   882.9    0.00     402     80.7
 273   15:20   85.0    13   11.9   209     18.4   882.8    0.00     375     80.8
 273   15:30   85.1    13   10.3   211     14.1   882.8    0.00     317     80.9
 273   15:40   85.0    13    6.3   207     11.6   882.8    0.00     318     81.0
 273   15:50   85.1    13    7.4   217     11.3   882.7    0.00     287     81.1
 273   16:00   84.4    13    8.3   222     14.9   882.6    0.00     254     81.2
 273   16:10   84.9    13    3.7   194      9.4   882.7    0.00     221     81.2
 273   16:20   85.0    13    1.9   266      3.9   882.6    0.00     194     81.2
 273   16:30   84.7    13    4.2   255      9.9   882.6    0.00     165     81.3
 273   16:40   84.3    13    3.5   227      6.9   882.5    0.00     133     81.3
 273   16:50   83.8    13    5.2   217      8.6   882.5    0.00      82     81.3
 273   17:00   83.8    13    4.5   205      7.4   882.5    0.00      66     81.3
 273   17:10   83.1    14    4.0   179      5.7   882.5    0.00      34     81.3
 273   17:20   81.8    14    3.4   170      4.2   882.6    0.00      23     81.3
 273   17:30   80.1    15    4.7   153      5.6   882.6    0.00      14     81.2
 273   17:40   78.5    16    5.1   147      5.7   882.6    0.00       7     81.2
 273   17:50   76.8    17    4.5   147      5.5   882.6    0.00       3     81.1
 273   18:00   76.2    17    4.5   154      4.9   882.6    0.00       0     81.0
 273   18:10   75.5    17    4.2   149      5.7   882.6    0.00       0     80.9
 273   18:20   73.9    18    4.4   163      5.2   882.6    0.00       0     80.8
 273   18:30   74.4    18    4.9   173      6.6   882.7    0.00       0     80.7
 273   18:40   75.7    17    5.1   187      6.6   882.8    0.00       0     80.5
 273   18:50   75.5    17    8.4   240     14.4   883.0    0.00       0     80.4
 273   19:00   75.3    17    8.4   244     13.7   883.1    0.00       0     80.3
 273   19:10   76.1    16   11.4   267     14.1   883.3    0.00       0     80.1
 273   19:20   76.0    16   13.7   279     16.6   883.4    0.00       0     80.0
 273   19:30   75.8    16   13.7   278     17.8   883.5    0.00       0     79.8
 273   19:40   74.5    17   11.8   278     13.7   883.7    0.00       0     79.6
 273   19:50   73.5    18   10.1   285     11.8   883.9    0.00       0     79.5
 273   20:00   72.9    18    8.6   277     10.2   884.0    0.00       0     79.3
 273   20:10   72.8    18    7.2   271      9.6   884.1    0.00       0     79.1
 273   20:20   72.5    19    5.5   270      7.5   884.2    0.00       0     79.0
 273   20:30   72.9    18    9.0   258     11.9   884.4    0.00       0     78.9
 273   20:40   73.1    18    5.3   242      8.3   884.6    0.00       0     78.7
 273   20:50   72.3    19    4.4   183      8.3   884.8    0.00       0     78.5
 273   21:00   72.5    18    3.9   144      8.0   884.9    0.00       0     78.4
 273   21:10   73.6    17    4.6   187      7.4   885.0    0.00       0     78.3
 273   21:20   73.0    18    3.1   181      4.5   885.1    0.00       0     78.2
 273   21:30   72.1    18    4.2   186      6.4   885.2    0.00       0     78.0
 273   21:40   70.9    19    4.9   180      6.4   885.2    0.00       0     77.9
 273   21:50   69.5    20    4.6   180      6.3   885.3    0.00       0     77.8
 273   22:00   68.4    20    5.3   198      6.9   885.4    0.00       0     77.6
 273   22:10   67.3    21    6.2   213      7.2   885.3    0.00       0     77.5
 273   22:20   66.8    21    6.6   209      7.3   885.3    0.00       0     77.4
 273   22:30   65.9    21    6.0   199      7.5   885.3    0.00       0     77.2
 273   22:40   64.9    22    6.4   190      8.3   885.3    0.00       0     77.1
 273   22:50   66.1    23    6.7   182      9.2   885.3    0.00       0     77.0
 273   23:00   65.9    23    5.9   192      8.7   885.3    0.00       0     76.9
 273   23:10   65.2    25    5.7   186      8.5   885.3    0.00       0     76.7
 273   23:20   64.0    25    5.7   199      6.7   885.3    0.00       0     76.6
 273   23:30   62.4    26    4.9   206      5.8   885.3    0.00       0     76.4
 273   23:40   61.7    27    5.2   206      6.2   885.3    0.00       0     76.3
 273   23:50   60.9    27    3.3   228      5.6   885.4    0.00       0     76.1
 274    0:00   60.5    28    1.7   256      2.6   885.4    0.00       0     76.0
 274    0:10   61.4    27    2.6   208      4.6   885.3    0.00       0     75.8
 274    0:20   61.6    28    5.6   196      7.5   885.3    0.00       0     75.7
 274    0:30   64.3    26    5.5   186      7.7   885.3    0.00       0     75.5
 274    0:40   65.3    25    6.4   188      8.3   885.3    0.00       0     75.4
 274    0:50   65.2    25    5.9   194      7.3   885.3    0.00       0     75.2
 274    1:00   66.5    24    6.6   200      8.2   885.3    0.00       0     75.1
 274    1:10   65.6    24    5.1   220      6.2   885.3    0.00       0     74.9
 274    1:20   63.9    25    3.3   223      4.2   885.3    0.00       0     74.8
 274    1:30   62.7    26    2.6   236      3.9   885.3    0.00       0     74.6
 274    1:40   62.3    27    1.8   268      2.8   885.3    0.00       0     74.5
 274    1:50   62.5    27    1.8   235      2.6   885.3    0.00       0     74.4
 274    2:00   62.1    27    2.9   198      5.1   885.3    0.00       0     74.2
 274    2:10   62.2    28    5.4   193      6.3   885.2    0.00       0     74.1
 274    2:20   63.2    28    4.7   195      6.0   885.2    0.00       0     74.0
 274    2:30   60.2    28    2.2    68      5.3   885.2    0.00       0     73.9
 274    2:40   58.2    30    4.2    56      6.2   885.2    0.00       0     73.7
 274    2:50   56.1    31    4.3    15      5.3   885.2    0.00       0     73.6
 274    3:00   55.6    30    4.6     5      5.2   885.2    0.00       0     73.5
 274    3:10   54.0    31    4.4    18      5.6   885.3    0.00       0     73.3
 274    3:20   53.4    32    3.4    39      4.2   885.3    0.00       0     73.2
 274    3:30   53.6    32    3.7    54      4.2   885.4    0.00       0     73.1
 274    3:40   53.7    32    4.3    58      5.1   885.4    0.00       0     72.9
 274    3:50   53.4    32    4.8    61      5.3   885.4    0.00       0     72.8
 274    4:00   53.3    32    3.9    52      4.7   885.4    0.00       0     72.6
 274    4:10   53.1    32    3.4    51      4.0   885.4    0.00       0     72.5
 274    4:20   53.7    32    3.8    35      4.2   885.4    0.00       0     72.3
 274    4:30   53.7    32    3.7    47      4.1   885.5    0.00       0     72.2
 274    4:40   52.7    32    3.5    76      4.1   885.5    0.00       0     72.1
 274    4:50   52.3    33    3.2    65      3.7   885.6    0.00       0     71.9
 274    5:00   52.1    33    4.0    58      4.4   885.6    0.00       0     71.8
 274    5:10   51.7    33    3.6    37      4.2   885.6    0.00       0     71.7
 274    5:20   51.3    34    2.4    33      2.8   885.6    0.00       0     71.5
 274    5:30   51.1    34    2.4    47      3.1   885.7    0.00       0     71.3
 274    5:40   51.0    33    3.4   351      3.8   885.8    0.00       0     71.2
 274    5:50   50.2    33    4.1    11      4.6   885.8    0.00       2     71.1
 274    6:00   50.2    33    4.0    51      4.7   885.9    0.00       5     71.0
 274    6:10   50.6    33    4.8    55      5.8   885.9    0.00      13     70.8
 274    6:20   51.1    32    4.8    70      5.6   885.9    0.00      41     70.7
 274    6:30   51.5    32    4.6    70      5.8   885.9    0.00      79     70.6
 274    6:40   52.2    32    3.5    60      4.2   886.0    0.00     116     70.4
 274    6:50   53.5    31    3.4    55      4.5   886.1    0.00     152     70.3
 274    7:00   54.3    30    4.0    31      4.8   886.1    0.00     187     70.2
 274    7:10   55.2    30    3.9    30      4.5   886.1    0.00     219     70.1
 274    7:20   56.4    30    3.7    34      4.5   886.0    0.00     250     69.9
 274    7:30   57.5    30    3.5    22      4.2   886.0    0.00     280     69.9
 274    7:40   58.7    29    3.4    14      4.1   886.1    0.00     311     69.8
 274    7:50   60.1    29    3.5    22      4.1   886.1    0.00     342     69.7
 274    8:00   61.6    29    3.2     4      4.5   886.0    0.00     369     69.6
 274    8:10   62.8    30    1.9   343      3.9   886.1    0.00     396     69.6
 274    8:20   64.1    29    1.3   324      2.7   886.1    0.00     422     69.6
 274    8:30   65.4    28    1.1    39      2.4   886.1    0.00     451     69.6
 274    8:40   66.8    27    1.1     9      2.7   886.1    0.00     477     69.6
 274    8:50   68.6    26    0.6   341      1.7   886.0    0.00     502     69.7
 274    9:00   69.0    25    0.6   312      1.8   885.9    0.00     529     69.8
 274    9:10   69.2    25    1.6   318      3.2   885.8    0.00     551     69.9
 274    9:20   69.7    25    1.9   359      4.9   885.7    0.00     574     70.0
 274    9:30   70.9    24    1.5     2      3.9   885.6    0.00     595     70.2
 274    9:40   71.9    23    1.3    38      3.6   885.5    0.00     615     70.4
 274    9:50   72.6    22    1.7   236      4.7   885.3    0.00     635     70.6
 274   10:00   73.4    22    1.6   309      3.0   885.2    0.00     650     70.7
 274   10:10   73.8    21    2.1   243      4.5   885.0    0.00     666     71.0
 274   10:20   74.8    21    2.1   218      3.9   884.9    0.00     679     71.2
 274   10:30   75.5    20    1.1   231      3.8   884.8    0.00     692     71.5
 274   10:40   76.8    19    1.3   228      3.6   884.6    0.00     703     71.8
 274   10:50   76.5    19    2.4   226      7.5   884.5    0.00     711     72.1
 274   11:00   77.3    18    4.7   195     12.9   884.4    0.00     718     72.5
 274   11:10   76.7    18    5.8   237     13.4   884.2    0.00     725     72.8
 274   11:20   76.9    18    6.5   224     12.3   884.1    0.00     728     73.1
 274   11:30   76.8    18    5.7   243     10.8   884.0    0.00     732     73.5
 274   11:40   76.8    18    7.4   262     14.3   883.8    0.00     735     73.8
 274   11:50   77.1    18    5.6   278     12.9   883.6    0.00     735     74.2
 274   12:00   77.7    18    5.0   246     10.9   883.4    0.00     733     74.6
 274   12:10   79.2    17    9.4   217     17.1   883.2    0.00     728     74.9
 274   12:20   79.2    17    5.5   221     11.6   883.0    0.00     724     75.3

Return to Carson Sink graphs page.


Western Regional Climate Center,wrcc@dri.edu